RJTT/HND METAR and TAF weather

Enter ICAO airport designator
Station Type Date Time Source
RJTT METAR 2019/04/20 22:30 UTC NOAA

RJTT 202230Z 01007KT 9999 FEW020 BKN/// 15/11 Q1014 NOSIG RMK 1CU020 A2995


Station Type Date Time Source
RJTT Decoded METAR 2019/04/20 22:30 UTC NOAA

Tokyo International Airport, Japan (RJTT) 35-33N 139-47E 8M
Apr 20, 2019 - 06:30 PM EDT / 2019.04.20 2230 UTC
Wind: from the N (010 degrees) at 8 MPH (7 KT):0
Visibility: greater than 7 mile(s):0
Sky conditions: mostly cloudy
Temperature: 59 F (15 C)
Dew Point: 51 F (11 C)
Relative Humidity: 76%
Pressure (altimeter): 29.94 in. Hg (1014 hPa)
ob: RJTT 202230Z 01007KT 9999 FEW020 BKN/// 15/11 Q1014 NOSIG RMK 1CU020 A2995
cycle: 22

Station Type Date Time Source
RJTT TAF 2019/04/20 18:31 UTC NOAA

TAF RJTT 201705Z 2018/2200 35006KT 9999 FEW015 SCT030
BECMG 2023/2101 16008KT
BECMG 2109/2112 03006KT

Example: see airport list